createdAt,value
2022-09-28T00:01:15.114Z,56.73
2022-09-28T00:03:41.774Z,56.86
2022-09-28T00:06:12.308Z,56.99
2022-09-28T00:08:39.134Z,57.17
2022-09-28T00:11:07.464Z,57.74
2022-09-28T00:13:35.244Z,57.90
2022-09-28T00:16:07.275Z,58.03
2022-09-28T00:18:35.440Z,58.41
2022-09-28T00:21:13.674Z,58.55
2022-09-28T00:24:00.296Z,58.66
2022-09-28T00:26:28.885Z,58.58
2022-09-28T00:29:00.899Z,58.69
2022-09-28T00:31:32.835Z,59.13
2022-09-28T00:34:01.513Z,59.53
2022-09-28T00:36:30.691Z,59.60
2022-09-28T00:38:58.496Z,59.71
2022-09-28T00:41:27.614Z,59.80
2022-09-28T00:44:15.131Z,60.21
2022-09-28T00:46:42.031Z,60.15
2022-09-28T00:49:15.709Z,59.98
2022-09-28T00:51:44.808Z,59.53
2022-09-28T00:54:12.853Z,59.62
2022-09-28T00:56:42.455Z,59.86
2022-09-28T00:59:09.433Z,59.96
2022-09-28T01:01:37.248Z,59.63
2022-09-28T01:04:04.983Z,59.95
2022-09-28T01:06:34.700Z,60.60
2022-09-28T01:09:07.364Z,60.47
2022-09-28T01:11:37.172Z,60.68
2022-09-28T01:14:08.734Z,60.41
2022-09-28T01:16:41.477Z,61.56
2022-09-28T01:19:44.603Z,60.92
2022-09-28T01:22:57.037Z,61.03
2022-09-28T01:25:41.935Z,61.71
2022-09-28T01:28:15.502Z,61.81
2022-09-28T01:31:03.436Z,62.23
2022-09-28T01:33:38.343Z,62.02
2022-09-28T01:36:09.664Z,61.98
2022-09-28T01:38:53.221Z,61.83
2022-09-28T01:41:22.484Z,61.62
2022-09-28T01:43:55.035Z,61.62
2022-09-28T01:46:27.469Z,61.81
2022-09-28T01:49:02.682Z,62.01
2022-09-28T01:51:43.197Z,61.97
2022-09-28T01:54:13.483Z,61.83
2022-09-28T01:56:45.070Z,62.39
2022-09-28T01:59:14.369Z,61.98
2022-09-28T02:01:45.874Z,62.00
2022-09-28T02:04:18.648Z,61.92
2022-09-28T02:06:53.641Z,62.58
2022-09-28T02:09:48.000Z,62.12
2022-09-28T02:12:32.503Z,62.59
2022-09-28T02:15:10.614Z,62.44
2022-09-28T02:17:37.445Z,62.29
2022-09-28T02:20:04.646Z,62.58
2022-09-28T02:22:43.006Z,62.41
2022-09-28T02:25:13.918Z,62.66
2022-09-28T02:27:48.112Z,62.82
2022-09-28T02:30:14.757Z,63.27
2022-09-28T02:32:48.608Z,62.54
2022-09-28T02:35:17.519Z,62.80
2022-09-28T02:37:45.146Z,62.95
2022-09-28T02:40:22.029Z,63.19
2022-09-28T02:42:48.607Z,62.33
2022-09-28T02:46:02.256Z,62.46
2022-09-28T02:49:10.507Z,62.98
2022-09-28T02:52:14.141Z,62.80
2022-09-28T02:54:46.573Z,62.76
2022-09-28T02:57:25.011Z,62.74
2022-09-28T03:00:21.337Z,61.49
2022-09-28T03:03:05.311Z,62.07
2022-09-28T03:06:10.545Z,62.08
2022-09-28T03:08:48.564Z,61.90
2022-09-28T03:11:20.628Z,61.43
2022-09-28T03:13:47.758Z,61.20
2022-09-28T03:16:17.960Z,61.09
2022-09-28T03:18:45.512Z,60.97
2022-09-28T03:21:13.335Z,61.23
2022-09-28T03:23:40.663Z,61.66
2022-09-28T03:26:13.749Z,61.09
2022-09-28T03:28:41.234Z,60.91
2022-09-28T03:31:08.047Z,61.09
2022-09-28T03:33:34.970Z,60.97
2022-09-28T03:36:01.827Z,61.20
2022-09-28T03:38:28.482Z,61.28
2022-09-28T03:40:59.565Z,61.82
2022-09-28T03:43:27.231Z,61.12
2022-09-28T03:46:03.264Z,60.91
2022-09-28T03:48:33.201Z,60.56
2022-09-28T03:51:02.520Z,60.57
2022-09-28T03:53:32.673Z,61.07
2022-09-28T03:56:14.268Z,60.82
2022-09-28T03:58:40.985Z,60.95
2022-09-28T04:01:14.158Z,60.35
2022-09-28T04:03:43.794Z,60.48
2022-09-28T04:06:10.905Z,60.82
2022-09-28T04:08:37.404Z,59.98
2022-09-28T04:11:03.951Z,60.39
2022-09-28T04:13:31.154Z,60.75
2022-09-28T04:16:00.271Z,60.48
2022-09-28T04:18:27.128Z,61.16
2022-09-28T04:21:06.875Z,61.71
2022-09-28T04:23:35.483Z,61.12
2022-09-28T04:26:04.055Z,61.38
2022-09-28T04:28:49.511Z,61.40
2022-09-28T04:31:19.455Z,61.39
2022-09-28T04:33:46.440Z,61.61
2022-09-28T04:36:13.712Z,61.72
2022-09-28T04:38:52.706Z,62.40
2022-09-28T04:41:24.809Z,62.08
2022-09-28T04:43:52.559Z,62.49
2022-09-28T04:46:19.448Z,62.78
2022-09-28T04:48:45.997Z,63.23
2022-09-28T04:51:14.225Z,63.16
2022-09-28T04:53:40.817Z,63.72
2022-09-28T04:56:12.913Z,63.70
2022-09-28T04:58:40.331Z,63.83
2022-09-28T05:01:10.826Z,64.21
2022-09-28T05:03:37.931Z,63.61
2022-09-28T05:06:07.032Z,64.59
2022-09-28T05:08:35.264Z,64.40
2022-09-28T05:11:04.672Z,64.55
2022-09-28T05:13:32.645Z,64.43
2022-09-28T05:16:04.436Z,64.71
2022-09-28T05:18:32.269Z,64.51
2022-09-28T05:20:58.964Z,64.67
2022-09-28T05:23:25.495Z,64.41
2022-09-28T05:25:52.155Z,64.62
2022-09-28T05:28:26.258Z,64.81
2022-09-28T05:30:53.275Z,64.74
2022-09-28T05:33:20.599Z,64.65
2022-09-28T05:35:52.489Z,64.67
2022-09-28T05:38:20.714Z,64.59
2022-09-28T05:40:47.433Z,65.40
2022-09-28T05:43:14.311Z,65.22
2022-09-28T05:45:40.995Z,65.57
2022-09-28T05:48:07.514Z,65.65
2022-09-28T05:50:51.182Z,65.89
2022-09-28T05:53:17.849Z,66.21
2022-09-28T05:55:44.458Z,65.99
2022-09-28T05:58:11.365Z,65.83
2022-09-28T06:00:40.080Z,66.32
2022-09-28T06:03:10.398Z,66.05
2022-09-28T06:05:38.789Z,66.74
2022-09-28T06:08:07.311Z,66.54
2022-09-28T06:10:34.529Z,65.86
2022-09-28T06:13:01.471Z,66.40
2022-09-28T06:15:30.807Z,66.09
2022-09-28T06:17:59.306Z,65.97
2022-09-28T06:20:27.705Z,66.24
2022-09-28T06:22:54.858Z,66.48
2022-09-28T06:25:23.200Z,65.36
2022-09-28T06:28:03.304Z,65.85
2022-09-28T06:30:32.076Z,65.94
2022-09-28T06:33:00.011Z,65.88
2022-09-28T06:35:28.680Z,65.83
2022-09-28T06:37:55.313Z,66.03
2022-09-28T06:40:23.338Z,66.15
2022-09-28T06:43:09.940Z,65.61
2022-09-28T06:45:37.679Z,66.20
2022-09-28T06:48:05.352Z,66.40
2022-09-28T06:50:35.986Z,66.16
2022-09-28T06:53:03.216Z,66.32
2022-09-28T06:55:30.005Z,66.79
2022-09-28T06:57:59.153Z,66.72
2022-09-28T07:00:31.258Z,66.37
2022-09-28T07:02:57.953Z,66.62
2022-09-28T07:05:27.448Z,66.75
2022-09-28T07:07:55.332Z,66.69
2022-09-28T07:10:23.898Z,66.81
2022-09-28T07:12:54.943Z,66.53
2022-09-28T07:15:21.924Z,66.08
2022-09-28T07:17:59.860Z,65.10
2022-09-28T07:20:29.089Z,65.81
2022-09-28T07:22:58.746Z,65.53
2022-09-28T07:25:32.397Z,65.65
2022-09-28T07:27:59.873Z,65.03
2022-09-28T07:30:28.207Z,65.42
2022-09-28T07:32:55.178Z,65.06
2022-09-28T07:35:22.565Z,65.28
2022-09-28T07:37:49.726Z,65.19
2022-09-28T07:40:34.763Z,66.30
2022-09-28T07:43:07.512Z,65.76
2022-09-28T07:45:36.693Z,65.90
2022-09-28T07:48:03.868Z,65.58
2022-09-28T07:50:30.915Z,65.38
2022-09-28T07:52:58.183Z,65.57
2022-09-28T07:55:25.242Z,66.05
2022-09-28T07:58:01.689Z,66.01
2022-09-28T08:00:33.965Z,65.71
2022-09-28T08:03:02.411Z,66.07
2022-09-28T08:05:32.170Z,65.90
2022-09-28T08:07:59.802Z,66.07
2022-09-28T08:10:26.829Z,65.55
2022-09-28T08:13:08.800Z,65.87
2022-09-28T08:15:37.122Z,65.50
2022-09-28T08:18:07.085Z,65.13
2022-09-28T08:20:53.119Z,65.19
2022-09-28T08:23:20.580Z,64.98
2022-09-28T08:25:52.596Z,65.11
2022-09-28T08:28:20.000Z,64.78
2022-09-28T08:30:47.442Z,64.46
2022-09-28T08:33:15.733Z,64.45
2022-09-28T08:35:42.322Z,64.04
2022-09-28T08:38:10.145Z,64.12
2022-09-28T08:40:55.624Z,64.10
2022-09-28T08:43:41.448Z,63.59
2022-09-28T08:46:11.357Z,63.11
2022-09-28T08:49:13.444Z,63.04
2022-09-28T08:51:44.001Z,63.37
2022-09-28T08:54:36.823Z,63.22
2022-09-28T08:57:15.564Z,63.43
2022-09-28T08:59:48.879Z,63.32
2022-09-28T09:02:22.497Z,63.53
2022-09-28T09:04:51.676Z,63.47
2022-09-28T09:07:45.968Z,63.84
2022-09-28T09:10:28.601Z,63.48
2022-09-28T09:13:14.943Z,63.68
2022-09-28T09:15:55.221Z,63.46
2022-09-28T09:18:37.234Z,63.70
2022-09-28T09:21:15.688Z,63.62
2022-09-28T09:23:51.622Z,63.54
2022-09-28T09:26:24.999Z,63.42
2022-09-28T09:29:14.478Z,63.49
2022-09-28T09:31:53.171Z,63.34
2022-09-28T09:34:25.638Z,63.24
2022-09-28T09:37:08.379Z,63.37
2022-09-28T09:39:51.339Z,64.09
2022-09-28T09:42:33.912Z,63.56
2022-09-28T09:45:39.782Z,63.34
2022-09-28T09:48:40.244Z,63.00
2022-09-28T09:51:18.173Z,62.43
2022-09-28T09:54:10.459Z,62.27
2022-09-28T09:56:45.435Z,62.52
2022-09-28T09:59:15.895Z,61.83
2022-09-28T10:01:42.832Z,62.03
2022-09-28T10:04:20.590Z,61.41
2022-09-28T10:06:49.880Z,61.11
2022-09-28T10:09:39.636Z,60.29
2022-09-28T10:12:11.136Z,59.85
2022-09-28T10:14:37.953Z,59.62
2022-09-28T10:17:05.349Z,58.86
2022-09-28T10:19:34.023Z,58.60
2022-09-28T10:22:04.002Z,58.56
2022-09-28T10:24:35.401Z,57.86
2022-09-28T10:27:08.071Z,56.80
2022-09-28T10:29:42.352Z,56.90
2022-09-28T10:32:26.748Z,57.03
2022-09-28T10:35:11.004Z,56.91
2022-09-28T10:37:56.483Z,55.80
2022-09-28T10:40:31.951Z,55.30
2022-09-28T10:43:33.794Z,54.10
2022-09-28T10:46:07.988Z,54.19
2022-09-28T10:48:57.862Z,52.99
2022-09-28T10:51:46.669Z,52.54
2022-09-28T10:54:19.012Z,52.67
2022-09-28T10:56:46.130Z,52.55
2022-09-28T10:59:31.549Z,52.17
2022-09-28T11:02:02.752Z,52.42
2022-09-28T11:04:39.084Z,51.62
2022-09-28T11:07:18.744Z,51.37
2022-09-28T11:09:51.792Z,49.27
2022-09-28T11:12:24.993Z,49.81
2022-09-28T11:15:09.835Z,48.52
2022-09-28T11:17:38.916Z,47.13
2022-09-28T11:20:38.878Z,45.29
2022-09-28T11:23:23.135Z,45.19
2022-09-28T11:26:06.619Z,44.92
2022-09-28T11:28:38.364Z,44.32
2022-09-28T11:31:08.089Z,44.80
2022-09-28T11:33:48.176Z,44.29
2022-09-28T11:36:14.620Z,43.63
2022-09-28T11:38:47.504Z,43.52
2022-09-28T11:41:51.760Z,42.78
2022-09-28T11:44:20.886Z,43.47
2022-09-28T11:46:53.840Z,43.36
2022-09-28T11:49:20.268Z,44.36
2022-09-28T11:51:50.800Z,43.67
2022-09-28T11:54:33.702Z,43.54
2022-09-28T11:57:04.337Z,43.68
2022-09-28T11:59:38.806Z,43.36
2022-09-28T12:02:29.989Z,43.42
2022-09-28T12:05:33.513Z,43.81
2022-09-28T12:08:13.463Z,43.71
2022-09-28T12:10:55.467Z,43.64
2022-09-28T12:13:33.019Z,43.36
2022-09-28T12:18:57.510Z,44.21
2022-09-28T12:21:45.518Z,44.52
2022-09-28T12:24:28.657Z,45.02
2022-09-28T12:27:10.467Z,45.22
2022-09-28T12:29:47.608Z,44.79
2022-09-28T12:32:35.718Z,45.18
2022-09-28T12:35:03.374Z,45.38
2022-09-28T12:38:01.438Z,45.61
2022-09-28T12:40:57.707Z,46.07
2022-09-28T12:43:28.999Z,46.45
2022-09-28T12:46:18.814Z,45.93
2022-09-28T12:49:51.535Z,45.95
2022-09-28T12:51:57.672Z,46.11
2022-09-28T12:55:03.979Z,46.26
2022-09-28T12:57:45.109Z,46.40
2022-09-28T13:00:16.045Z,46.04
2022-09-28T13:02:49.581Z,46.16
2022-09-28T13:05:16.342Z,46.88
2022-09-28T13:08:00.114Z,47.43
2022-09-28T13:10:33.826Z,47.00
2022-09-28T13:13:19.079Z,47.24
2022-09-28T13:15:48.539Z,47.18
2022-09-28T13:18:44.558Z,46.72
2022-09-28T13:21:34.689Z,47.56
2022-09-28T13:24:27.931Z,46.85
2022-09-28T13:26:56.926Z,47.13
2022-09-28T13:29:27.529Z,46.66
2022-09-28T13:31:58.171Z,46.97
2022-09-28T13:34:32.026Z,47.08
2022-09-28T13:37:17.024Z,47.45
2022-09-28T13:39:52.206Z,47.92
2022-09-28T13:42:53.085Z,47.52
2022-09-28T13:48:00.270Z,47.45
2022-09-28T13:51:04.445Z,46.53
2022-09-28T13:53:37.145Z,46.49
2022-09-28T13:56:23.392Z,47.42
2022-09-28T13:59:15.844Z,47.45
2022-09-28T14:01:56.384Z,47.97
2022-09-28T14:04:45.272Z,48.00
2022-09-28T14:10:44.524Z,47.33
2022-09-28T14:13:12.175Z,47.88
2022-09-28T14:15:42.285Z,47.72
2022-09-28T14:18:19.189Z,46.96
2022-09-28T14:21:29.436Z,46.60
2022-09-28T14:24:20.299Z,47.22
2022-09-28T14:26:53.216Z,46.84
2022-09-28T14:29:30.150Z,48.17
2022-09-28T14:32:03.557Z,48.17
2022-09-28T14:34:34.371Z,49.04
2022-09-28T14:37:22.064Z,49.40
2022-09-28T14:40:07.697Z,47.91
2022-09-28T14:42:34.317Z,47.97
2022-09-28T14:45:06.607Z,47.56
2022-09-28T14:47:37.903Z,47.43
2022-09-28T14:50:27.684Z,47.19
2022-09-28T14:52:57.120Z,46.96
2022-09-28T14:55:40.800Z,47.35
2022-09-28T14:58:19.041Z,47.64
2022-09-28T15:00:47.240Z,47.50
2022-09-28T15:03:14.767Z,47.71
2022-09-28T15:05:49.831Z,48.08
2022-09-28T15:08:21.027Z,48.23
2022-09-28T15:10:50.716Z,48.48
2022-09-28T15:13:28.562Z,48.62
2022-09-28T15:16:03.695Z,48.69
2022-09-28T15:19:04.648Z,48.07
2022-09-28T15:21:36.971Z,48.84
2022-09-28T15:24:03.708Z,48.70
2022-09-28T15:26:34.240Z,48.29
2022-09-28T15:29:04.268Z,48.19
2022-09-28T15:31:35.726Z,48.84
2022-09-28T15:34:20.905Z,48.85
2022-09-28T15:36:47.732Z,49.03
2022-09-28T15:39:20.919Z,49.04
2022-09-28T15:41:50.327Z,49.55
2022-09-28T15:44:37.242Z,49.40
2022-09-28T15:47:23.919Z,50.42
2022-09-28T15:49:58.669Z,49.45
2022-09-28T15:52:28.427Z,49.65
2022-09-28T15:54:55.590Z,49.49
2022-09-28T15:57:40.029Z,49.38
2022-09-28T16:00:24.695Z,49.70
2022-09-28T16:03:20.795Z,49.95
2022-09-28T16:05:57.920Z,49.25
2022-09-28T16:08:36.518Z,49.80
2022-09-28T16:11:16.850Z,49.92
2022-09-28T16:14:06.204Z,49.51
2022-09-28T16:16:43.291Z,49.69
2022-09-28T16:19:24.307Z,49.89
2022-09-28T16:21:59.431Z,49.87
2022-09-28T16:24:31.759Z,50.14
2022-09-28T16:27:02.920Z,50.49
2022-09-28T16:29:41.428Z,50.49
2022-09-28T16:32:35.304Z,50.71
2022-09-28T16:35:19.700Z,50.69
2022-09-28T16:37:49.789Z,50.89
2022-09-28T16:40:16.669Z,51.02
2022-09-28T16:42:48.836Z,51.12
2022-09-28T16:45:27.906Z,50.69
2022-09-28T16:47:58.453Z,51.10
2022-09-28T16:50:25.742Z,51.27
2022-09-28T16:53:34.899Z,51.27
2022-09-28T16:56:03.018Z,51.88
2022-09-28T16:58:31.572Z,52.31
2022-09-28T17:03:33.196Z,51.98
2022-09-28T17:06:04.786Z,51.71
2022-09-28T17:08:35.374Z,52.01
2022-09-28T17:11:24.739Z,52.34
2022-09-28T17:13:52.519Z,52.27
2022-09-28T17:16:36.750Z,52.23
2022-09-28T17:19:18.612Z,51.95
2022-09-28T17:21:45.783Z,52.02
2022-09-28T17:24:12.380Z,51.92
2022-09-28T17:26:40.240Z,51.96
2022-09-28T17:29:09.856Z,51.64
2022-09-28T17:31:36.350Z,51.41
2022-09-28T17:34:03.182Z,51.09
2022-09-28T17:36:30.472Z,51.20
2022-09-28T17:38:57.349Z,51.40
2022-09-28T17:41:24.246Z,51.39
2022-09-28T17:43:50.961Z,51.63
2022-09-28T17:46:34.203Z,51.90
2022-09-28T17:49:03.050Z,52.05
2022-09-28T17:51:32.367Z,52.48
2022-09-28T17:54:01.006Z,52.38
2022-09-28T17:56:32.125Z,52.45
2022-09-28T17:59:00.263Z,53.38
2022-09-28T18:01:30.163Z,53.33
2022-09-28T18:03:56.903Z,53.56
2022-09-28T18:06:23.889Z,53.44
2022-09-28T18:08:50.574Z,53.49
2022-09-28T18:11:21.046Z,53.59
2022-09-28T18:13:47.684Z,53.67
2022-09-28T18:16:14.777Z,53.79
2022-09-28T18:18:42.834Z,53.73
2022-09-28T18:21:09.712Z,53.90
2022-09-28T18:23:38.351Z,53.87
2022-09-28T18:26:19.022Z,54.24
2022-09-28T18:28:47.043Z,54.31
2022-09-28T18:31:15.708Z,54.33
2022-09-28T18:33:44.200Z,54.52
2022-09-28T18:36:10.949Z,54.65
2022-09-28T18:38:38.524Z,54.88
2022-09-28T18:41:16.519Z,54.88
2022-09-28T18:43:49.059Z,54.70
2022-09-28T18:46:23.263Z,54.68
2022-09-28T18:48:53.246Z,54.51
2022-09-28T18:51:21.889Z,54.62
2022-09-28T18:53:48.558Z,54.72
2022-09-28T18:56:18.306Z,54.34
2022-09-28T18:58:46.313Z,54.61
2022-09-28T19:01:29.958Z,54.26
2022-09-28T19:04:02.069Z,54.24
2022-09-28T19:06:30.047Z,54.61
2022-09-28T19:08:58.428Z,54.39
2022-09-28T19:11:25.672Z,54.54
2022-09-28T19:13:54.709Z,54.13
2022-09-28T19:16:26.210Z,54.09
2022-09-28T19:18:53.770Z,54.11
2022-09-28T19:21:21.071Z,53.70
2022-09-28T19:23:49.944Z,54.08
2022-09-28T19:26:22.752Z,53.95
2022-09-28T19:28:50.393Z,53.79
2022-09-28T19:31:18.052Z,53.94
2022-09-28T19:33:46.362Z,53.64
2022-09-28T19:36:24.020Z,54.28
2022-09-28T19:39:03.508Z,54.01
2022-09-28T19:41:44.336Z,53.76
2022-09-28T19:44:25.391Z,53.72
2022-09-28T19:47:12.857Z,53.81
2022-09-28T19:49:40.846Z,53.79
2022-09-28T19:52:16.386Z,53.71
2022-09-28T19:54:45.141Z,53.72
2022-09-28T19:57:19.641Z,53.16
2022-09-28T19:59:52.519Z,53.10
2022-09-28T20:02:21.424Z,53.38
2022-09-28T20:04:48.724Z,53.60
2022-09-28T20:07:15.622Z,53.17
2022-09-28T20:09:43.789Z,53.59
2022-09-28T20:12:11.238Z,53.96
2022-09-28T20:14:40.106Z,54.44
2022-09-28T20:17:07.454Z,54.10
2022-09-28T20:19:35.164Z,54.37
2022-09-28T20:22:03.182Z,54.20
2022-09-28T20:24:31.272Z,54.39
2022-09-28T20:26:58.434Z,54.34
2022-09-28T20:29:25.282Z,54.89
2022-09-28T20:31:52.292Z,55.32
2022-09-28T20:34:20.247Z,55.24
2022-09-28T20:36:48.831Z,55.51
2022-09-28T20:39:16.838Z,55.90
2022-09-28T20:41:43.880Z,55.83
2022-09-28T20:44:14.336Z,55.65
2022-09-28T20:46:45.593Z,55.12
2022-09-28T20:49:13.059Z,54.76
2022-09-28T20:51:43.169Z,54.67
2022-09-28T20:54:10.036Z,54.94
2022-09-28T20:56:39.191Z,55.12
2022-09-28T20:59:14.984Z,55.17
2022-09-28T21:01:43.743Z,54.95
2022-09-28T21:04:12.707Z,55.13
2022-09-28T21:06:42.230Z,55.45
2022-09-28T21:09:13.370Z,55.82
2022-09-28T21:11:40.486Z,56.01
2022-09-28T21:14:10.639Z,55.82
2022-09-28T21:16:39.820Z,55.78
2022-09-28T21:19:08.344Z,55.83
2022-09-28T21:21:39.621Z,56.04
2022-09-28T21:24:06.819Z,56.44
2022-09-28T21:26:37.048Z,56.31
2022-09-28T21:29:12.385Z,56.53
2022-09-28T21:31:47.093Z,56.89
2022-09-28T21:34:21.848Z,56.52
2022-09-28T21:36:51.665Z,56.58
2022-09-28T21:39:21.950Z,57.01
2022-09-28T21:41:52.370Z,57.16
2022-09-28T21:44:19.072Z,56.94
2022-09-28T21:46:48.522Z,56.87
2022-09-28T21:49:15.965Z,57.21
2022-09-28T21:51:44.971Z,56.77
2022-09-28T21:54:15.597Z,57.12
2022-09-28T21:56:47.494Z,57.37
2022-09-28T21:59:14.058Z,57.74
2022-09-28T22:01:42.688Z,58.08
2022-09-28T22:04:10.861Z,58.35
2022-09-28T22:06:40.014Z,58.73
2022-09-28T22:09:08.133Z,58.75
2022-09-28T22:11:36.948Z,58.68
2022-09-28T22:14:03.725Z,59.12
2022-09-28T22:16:32.133Z,58.83
2022-09-28T22:19:16.252Z,59.25
2022-09-28T22:21:45.613Z,59.40
2022-09-28T22:24:14.154Z,60.06
2022-09-28T22:26:42.605Z,60.15
2022-09-28T22:29:13.184Z,60.56
2022-09-28T22:31:42.030Z,61.69
2022-09-28T22:34:14.973Z,61.78
2022-09-28T22:36:55.149Z,62.62
2022-09-28T22:39:24.652Z,63.42
2022-09-28T22:41:54.894Z,63.64
2022-09-28T22:44:24.107Z,64.47
2022-09-28T22:46:55.661Z,65.10
2022-09-28T22:49:29.553Z,65.27
2022-09-28T22:51:56.335Z,65.94
2022-09-28T22:54:29.923Z,66.23
2022-09-28T22:57:00.248Z,66.23
2022-09-28T22:59:27.900Z,66.59
2022-09-28T23:01:58.552Z,66.55
2022-09-28T23:04:27.666Z,67.29
2022-09-28T23:06:54.271Z,66.94
2022-09-28T23:09:20.886Z,68.01
2022-09-28T23:11:47.652Z,68.69
2022-09-28T23:14:14.279Z,68.58
2022-09-28T23:16:41.410Z,69.26
2022-09-28T23:19:08.157Z,69.17
2022-09-28T23:21:34.708Z,69.47
2022-09-28T23:24:01.630Z,68.87
2022-09-28T23:26:31.263Z,69.16
2022-09-28T23:28:59.517Z,69.61
2022-09-28T23:31:28.676Z,69.35
2022-09-28T23:34:06.500Z,69.50
2022-09-28T23:36:34.127Z,69.28
2022-09-28T23:39:01.128Z,69.67
2022-09-28T23:41:28.197Z,69.99
2022-09-28T23:43:54.932Z,69.60
2022-09-28T23:46:21.725Z,69.27
2022-09-28T23:48:49.137Z,69.48
2022-09-28T23:51:15.764Z,69.14
2022-09-28T23:53:43.719Z,69.12
2022-09-28T23:56:10.399Z,69.64
2022-09-28T23:58:37.226Z,69.45
